Time;durP1;ratioP1;P1;durP2;ratioP2;P2;SDS_P1;SDS_P2;PMS_P1;PMS_P2;Temp;Humidity;BMP_temperature;BMP_pressure;BME280_temperature;BME280_humidity;BME280_pressure;Samples;Min_cycle;Max_cycle;Signal;HPM_P1;HPM_P2
2023/03/12 00:01:17;;;;;;;35.47;8.90;;;;;;;;;;5010794;28;20119;-68
2023/03/12 00:03:43;;;;;;;31.45;9.43;;;;;;;;;;5012743;28;20061;-69
2023/03/12 00:06:09;;;;;;;33.05;9.20;;;;;;;;;;5012503;28;20034;-69
2023/03/12 00:08:35;;;;;;;44.45;9.57;;;;;;;;;;5012339;28;20029;-69
2023/03/12 00:11:05;;;;;;;36.03;9.73;;;;;;;;;;5012500;28;20061;-69
2023/03/12 00:13:31;;;;;;;42.55;8.98;;;;;;;;;;5012387;28;20084;-68
2023/03/12 00:16:02;;;;;;;37.33;10.32;;;;;;;;;;5011319;28;20571;-69
2023/03/12 00:18:28;;;;;;;40.78;11.23;;;;;;;;;;5012222;28;20383;-68
2023/03/12 00:20:55;;;;;;;52.53;11.40;;;;;;;;;;5012137;28;20398;-68
2023/03/12 00:23:21;;;;;;;33.38;9.10;;;;;;;;;;5012372;28;20030;-68
2023/03/12 00:25:47;;;;;;;51.25;10.38;;;;;;;;;;5010776;28;20030;-69
2023/03/12 00:28:13;;;;;;;40.70;11.45;;;;;;;;;;5012157;28;20117;-69
2023/03/12 00:30:39;;;;;;;66.80;14.20;;;;;;;;;;5012186;28;20025;-69
2023/03/12 00:33:05;;;;;;;54.00;14.38;;;;;;;;;;5011080;28;20064;-69
2023/03/12 00:35:31;;;;;;;43.10;12.05;;;;;;;;;;5011830;28;20386;-69
2023/03/12 00:37:57;;;;;;;45.22;12.63;;;;;;;;;;5011857;28;20030;-68
2023/03/12 00:40:23;;;;;;;48.13;13.38;;;;;;;;;;5011891;28;20087;-69
2023/03/12 00:42:50;;;;;;;44.92;12.15;;;;;;;;;;5010550;28;20029;-69
2023/03/12 00:45:16;;;;;;;47.35;11.70;;;;;;;;;;5012043;28;20026;-69
2023/03/12 00:47:42;;;;;;;30.38;8.73;;;;;;;;;;5010853;28;20033;-69
2023/03/12 00:50:08;;;;;;;25.60;9.80;;;;;;;;;;5011946;28;20544;-69
2023/03/12 00:52:34;;;;;;;44.88;10.65;;;;;;;;;;5011727;28;20030;-69
2023/03/12 00:55:00;;;;;;;42.20;9.50;;;;;;;;;;5010329;28;20382;-69
2023/03/12 00:57:26;;;;;;;38.13;11.88;;;;;;;;;;5011714;28;20113;-69
2023/03/12 00:59:52;;;;;;;26.40;7.38;;;;;;;;;;5010238;28;20032;-69
2023/03/12 01:02:19;;;;;;;27.88;7.85;;;;;;;;;;5011668;28;20041;-68
2023/03/12 01:04:45;;;;;;;27.42;9.50;;;;;;;;;;5010578;28;20065;-70
2023/03/12 01:07:11;;;;;;;27.92;8.50;;;;;;;;;;5011494;28;20062;-68
2023/03/12 01:09:37;;;;;;;41.05;8.57;;;;;;;;;;5011471;28;20022;-71
2023/03/12 01:12:03;;;;;;;41.17;12.57;;;;;;;;;;5011541;28;20077;-69
2023/03/12 01:14:29;;;;;;;40.00;11.70;;;;;;;;;;5011795;28;20512;-69
2023/03/12 01:16:55;;;;;;;39.65;13.60;;;;;;;;;;5011517;28;20030;-69
2023/03/12 01:19:21;;;;;;;50.17;14.57;;;;;;;;;;5010499;28;20084;-69
2023/03/12 01:21:47;;;;;;;42.05;13.93;;;;;;;;;;5011254;28;20069;-69
2023/03/12 01:24:13;;;;;;;43.13;12.65;;;;;;;;;;5010077;28;20037;-69
2023/03/12 01:26:40;;;;;;;46.15;9.90;;;;;;;;;;5011350;28;20582;-70
2023/03/12 01:29:06;;;;;;;40.75;10.60;;;;;;;;;;5011630;28;20030;-69
2023/03/12 01:31:32;;;;;;;50.55;9.55;;;;;;;;;;5011204;28;20030;-70
2023/03/12 01:33:58;;;;;;;78.82;11.07;;;;;;;;;;5011350;28;20026;-69
2023/03/12 01:36:25;;;;;;;45.38;7.65;;;;;;;;;;5010288;28;20556;-69
2023/03/12 01:38:52;;;;;;;60.08;7.38;;;;;;;;;;5011308;28;20442;-69
2023/03/12 01:41:18;;;;;;;54.08;7.00;;;;;;;;;;5011212;28;20033;-70
2023/03/12 01:43:44;;;;;;;291.50;14.82;;;;;;;;;;5011064;28;20022;-69
2023/03/12 01:46:29;;;;;;;158.90;9.55;;;;;;;;;;5011225;28;20042;-68
2023/03/12 01:49:14;;;;;;;130.15;8.77;;;;;;;;;;5011173;28;20014;-68
2023/03/12 01:51:43;;;;;;;184.02;12.52;;;;;;;;;;5011511;28;20022;-68
2023/03/12 01:54:12;;;;;;;140.15;10.40;;;;;;;;;;5009986;28;20033;-69
2023/03/12 01:56:38;;;;;;;69.53;6.93;;;;;;;;;;5011296;28;20026;-68
2023/03/12 01:59:15;;;;;;;119.03;8.82;;;;;;;;;;5011131;28;20474;-69
2023/03/12 02:01:42;;;;;;;86.45;9.23;;;;;;;;;;5011175;28;20061;-68
2023/03/12 02:04:08;;;;;;;72.88;8.77;;;;;;;;;;5009777;28;20029;-68
2023/03/12 02:06:38;;;;;;;68.75;10.60;;;;;;;;;;5010984;28;20149;-69
2023/03/12 02:09:05;;;;;;;94.45;9.85;;;;;;;;;;5009970;28;20026;-69
2023/03/12 02:11:32;;;;;;;55.70;8.32;;;;;;;;;;5010851;28;20043;-68
2023/03/12 02:13:58;;;;;;;57.55;8.73;;;;;;;;;;5009762;28;20251;-68
2023/03/12 02:16:24;;;;;;;50.83;8.25;;;;;;;;;;5010240;28;20046;-68
2023/03/12 02:18:51;;;;;;;52.05;9.20;;;;;;;;;;5010870;28;20034;-70
2023/03/12 02:21:20;;;;;;;65.75;9.00;;;;;;;;;;5009456;28;20046;-70
2023/03/12 02:23:54;;;;;;;61.28;8.00;;;;;;;;;;5011820;28;20033;-68
2023/03/12 02:26:21;;;;;;;70.05;9.15;;;;;;;;;;5013409;28;20058;-69
2023/03/12 02:28:47;;;;;;;81.18;9.18;;;;;;;;;;5012869;28;20064;-69
2023/03/12 02:31:15;;;;;;;77.22;9.65;;;;;;;;;;5014424;28;20030;-69
2023/03/12 02:33:41;;;;;;;65.70;8.70;;;;;;;;;;5014502;28;20045;-69
2023/03/12 02:36:08;;;;;;;78.30;9.70;;;;;;;;;;5014306;28;20069;-69
2023/03/12 02:38:47;;;;;;;63.55;7.57;;;;;;;;;;5012757;28;20028;-70
2023/03/12 02:41:28;;;;;;;77.72;8.10;;;;;;;;;;5014141;28;20022;-69
2023/03/12 02:43:57;;;;;;;81.05;8.48;;;;;;;;;;5011480;28;20049;-69
2023/03/12 02:46:23;;;;;;;53.75;6.32;;;;;;;;;;5012823;28;20030;-69
2023/03/12 02:48:50;;;;;;;82.82;7.97;;;;;;;;;;5013983;28;20030;-68
2023/03/12 02:51:16;;;;;;;64.65;6.40;;;;;;;;;;5013717;28;20371;-68
2023/03/12 02:53:42;;;;;;;81.43;7.78;;;;;;;;;;5013635;28;20474;-68
2023/03/12 02:56:08;;;;;;;98.57;9.35;;;;;;;;;;5012388;28;20032;-68
2023/03/12 02:58:35;;;;;;;79.13;8.35;;;;;;;;;;5013743;28;20026;-67
2023/03/12 03:01:01;;;;;;;74.15;7.32;;;;;;;;;;5012663;28;20029;-69
2023/03/12 03:03:27;;;;;;;84.03;8.43;;;;;;;;;;5012481;28;20120;-68
2023/03/12 03:05:53;;;;;;;72.22;7.78;;;;;;;;;;5013544;28;20038;-69
2023/03/12 03:08:19;;;;;;;83.85;8.65;;;;;;;;;;5013615;28;20072;-68
2023/03/12 03:10:45;;;;;;;72.25;7.95;;;;;;;;;;5013532;28;20565;-68
2023/03/12 03:13:11;;;;;;;84.68;10.52;;;;;;;;;;5013214;28;20038;-69
2023/03/12 03:15:38;;;;;;;87.57;8.20;;;;;;;;;;5045499;28;20053;-68
2023/03/12 03:18:04;;;;;;;66.40;9.05;;;;;;;;;;5012655;28;20490;-69
2023/03/12 03:20:31;;;;;;;96.60;9.10;;;;;;;;;;5013224;28;20033;-68
2023/03/12 03:22:57;;;;;;;95.72;11.93;;;;;;;;;;5012561;28;20046;-68
2023/03/12 03:25:24;;;;;;;59.03;8.93;;;;;;;;;;5013093;28;20497;-69
2023/03/12 03:27:50;;;;;;;82.10;8.48;;;;;;;;;;5013048;28;20034;-69
2023/03/12 03:30:18;;;;;;;102.53;10.18;;;;;;;;;;5011794;28;20083;-68
2023/03/12 03:32:44;;;;;;;94.07;9.93;;;;;;;;;;5012047;28;20483;-68
2023/03/12 03:35:10;;;;;;;99.00;9.55;;;;;;;;;;5011917;28;20037;-69
2023/03/12 03:37:36;;;;;;;80.68;9.25;;;;;;;;;;5013177;28;20018;-69
2023/03/12 03:40:02;;;;;;;85.93;8.77;;;;;;;;;;5012809;28;20022;-70
2023/03/12 03:42:28;;;;;;;107.65;8.80;;;;;;;;;;5012532;28;20033;-69
2023/03/12 03:44:54;;;;;;;85.65;9.38;;;;;;;;;;5012796;28;20037;-69
2023/03/12 03:47:21;;;;;;;94.57;10.18;;;;;;;;;;5012704;28;20458;-69
2023/03/12 03:49:47;;;;;;;107.88;11.43;;;;;;;;;;5010390;28;20032;-70
2023/03/12 03:52:13;;;;;;;86.82;7.85;;;;;;;;;;5011330;28;20386;-70
2023/03/12 03:54:39;;;;;;;66.18;8.52;;;;;;;;;;5011296;28;20022;-70
2023/03/12 03:57:05;;;;;;;91.72;8.27;;;;;;;;;;5012956;28;20086;-68
2023/03/12 03:59:31;;;;;;;98.93;9.75;;;;;;;;;;5012626;28;20399;-68
2023/03/12 04:01:58;;;;;;;75.80;9.02;;;;;;;;;;5012703;28;20029;-67
2023/03/12 04:04:24;;;;;;;68.63;7.95;;;;;;;;;;5011361;28;20034;-69
2023/03/12 04:06:50;;;;;;;89.18;8.80;;;;;;;;;;5012507;28;20117;-68
2023/03/12 04:09:16;;;;;;;88.43;11.30;;;;;;;;;;5012299;28;20026;-69
2023/03/12 04:11:42;;;;;;;68.95;8.82;;;;;;;;;;5010871;28;20045;-69
2023/03/12 04:14:08;;;;;;;85.85;8.57;;;;;;;;;;5009502;28;20026;-70
2023/03/12 04:16:34;;;;;;;77.15;8.20;;;;;;;;;;5011055;28;20030;-69
2023/03/12 04:19:00;;;;;;;73.22;9.32;;;;;;;;;;4992585;28;20125;-69
2023/03/12 04:21:27;;;;;;;84.53;11.38;;;;;;;;;;5037472;28;20110;-70
2023/03/12 04:23:53;;;;;;;90.10;10.60;;;;;;;;;;5011599;28;20030;-69
2023/03/12 04:26:19;;;;;;;90.13;10.38;;;;;;;;;;5010302;28;20037;-71
2023/03/12 04:28:45;;;;;;;94.57;11.55;;;;;;;;;;5012142;28;20033;-70
2023/03/12 04:31:11;;;;;;;98.53;10.05;;;;;;;;;;5011844;28;20022;-70
2023/03/12 04:33:38;;;;;;;97.25;10.65;;;;;;;;;;5011931;28;20121;-69
2023/03/12 04:36:05;;;;;;;95.13;9.75;;;;;;;;;;5010777;28;20029;-70
2023/03/12 04:38:31;;;;;;;98.50;11.48;;;;;;;;;;5010572;28;20466;-70
2023/03/12 04:41:01;;;;;;;79.43;9.30;;;;;;;;;;5012098;28;20104;-71
2023/03/12 04:43:28;;;;;;;68.93;7.28;;;;;;;;;;5011754;28;20097;-71
2023/03/12 04:45:54;;;;;;;81.82;8.25;;;;;;;;;;5011463;28;20572;-71
2023/03/12 04:48:20;;;;;;;91.95;9.65;;;;;;;;;;5011335;28;20097;-70
2023/03/12 04:50:46;;;;;;;105.90;9.63;;;;;;;;;;5010491;28;20076;-71
2023/03/12 04:53:12;;;;;;;116.00;12.70;;;;;;;;;;5010627;28;20494;-70
2023/03/12 04:55:38;;;;;;;98.32;9.18;;;;;;;;;;5011835;28;20038;-69
2023/03/12 04:58:04;;;;;;;81.20;8.27;;;;;;;;;;5010526;28;20081;-70
2023/03/12 05:00:31;;;;;;;73.78;8.70;;;;;;;;;;5011685;28;20026;-72
2023/03/12 05:02:57;;;;;;;80.28;9.07;;;;;;;;;;5011761;28;20034;-70
2023/03/12 05:05:23;;;;;;;89.20;8.90;;;;;;;;;;5011831;28;20026;-70
2023/03/12 05:07:49;;;;;;;70.80;9.35;;;;;;;;;;5011545;28;20049;-70
2023/03/12 05:10:15;;;;;;;87.15;8.80;;;;;;;;;;5010607;28;20080;-71
2023/03/12 05:12:41;;;;;;;69.38;9.38;;;;;;;;;;5011671;28;20081;-71
2023/03/12 05:15:07;;;;;;;79.90;9.57;;;;;;;;;;5011352;28;20022;-73
2023/03/12 05:17:34;;;;;;;83.43;9.88;;;;;;;;;;5011393;28;20025;-71
2023/03/12 05:20:00;;;;;;;85.07;10.45;;;;;;;;;;5011594;28;20120;-70
2023/03/12 05:22:26;;;;;;;98.53;8.80;;;;;;;;;;5009866;28;20042;-71
2023/03/12 05:24:52;;;;;;;92.20;10.98;;;;;;;;;;5011586;28;20038;-70
2023/03/12 05:27:18;;;;;;;74.05;8.45;;;;;;;;;;5010266;28;20048;-70
2023/03/12 05:29:45;;;;;;;97.60;10.32;;;;;;;;;;5011388;28;20114;-71
2023/03/12 05:32:11;;;;;;;67.07;9.63;;;;;;;;;;5011458;28;20471;-70
2023/03/12 05:34:37;;;;;;;90.75;9.82;;;;;;;;;;5011174;28;20026;-68
2023/03/12 05:37:03;;;;;;;74.32;7.07;;;;;;;;;;5011416;28;20025;-71
2023/03/12 05:39:29;;;;;;;92.15;9.50;;;;;;;;;;5011230;28;20352;-71
2023/03/12 05:41:56;;;;;;;80.95;8.32;;;;;;;;;;5011420;28;20033;-71
2023/03/12 05:44:24;;;;;;;82.78;8.85;;;;;;;;;;5010464;28;20041;-70
2023/03/12 05:46:51;;;;;;;95.68;10.15;;;;;;;;;;5011137;28;20690;-71
2023/03/12 05:49:17;;;;;;;101.00;9.27;;;;;;;;;;5011185;28;20036;-71
2023/03/12 05:51:43;;;;;;;74.15;8.43;;;;;;;;;;5010911;28;20028;-71
2023/03/12 05:54:10;;;;;;;78.05;8.38;;;;;;;;;;5011403;28;20026;-71
2023/03/12 05:56:36;;;;;;;94.80;9.10;;;;;;;;;;5011304;28;20109;-70
2023/03/12 05:59:02;;;;;;;62.47;8.32;;;;;;;;;;5012459;28;20022;-71
2023/03/12 06:01:30;;;;;;;90.03;8.07;;;;;;;;;;5013803;28;20597;-70
2023/03/12 06:03:56;;;;;;;88.68;8.32;;;;;;;;;;5014902;28;20477;-70
2023/03/12 06:06:22;;;;;;;73.78;8.52;;;;;;;;;;5014860;28;20034;-71
2023/03/12 06:08:49;;;;;;;72.05;7.80;;;;;;;;;;5014771;28;20100;-72
2023/03/12 06:11:15;;;;;;;62.95;6.53;;;;;;;;;;5014908;28;20172;-71
2023/03/12 06:13:41;;;;;;;56.63;8.18;;;;;;;;;;5014619;28;20037;-72
2023/03/12 06:16:13;;;;;;;73.10;7.55;;;;;;;;;;5014678;28;20021;-70
2023/03/12 06:18:40;;;;;;;69.25;8.02;;;;;;;;;;5013725;28;20406;-71
2023/03/12 06:21:12;;;;;;;72.13;8.60;;;;;;;;;;5014195;28;20049;-71
2023/03/12 06:23:38;;;;;;;68.75;10.30;;;;;;;;;;5014450;28;20435;-71
2023/03/12 06:26:05;;;;;;;78.53;9.60;;;;;;;;;;5014014;28;20105;-71
2023/03/12 06:28:31;;;;;;;73.93;9.43;;;;;;;;;;5013061;28;20435;-71
2023/03/12 06:30:57;;;;;;;67.20;7.15;;;;;;;;;;5014465;28;20568;-72
2023/03/12 06:33:23;;;;;;;57.97;7.50;;;;;;;;;;5012944;28;20022;-71
2023/03/12 06:35:52;;;;;;;57.67;6.70;;;;;;;;;;5014519;28;20028;-71
2023/03/12 06:38:18;;;;;;;66.38;8.27;;;;;;;;;;5014130;28;20034;-70
2023/03/12 06:40:53;;;;;;;75.03;8.75;;;;;;;;;;5014157;28;20021;-71
2023/03/12 06:43:19;;;;;;;73.85;7.80;;;;;;;;;;5014348;28;20041;-71
2023/03/12 06:45:45;;;;;;;55.03;6.50;;;;;;;;;;5013984;28;20030;-71
2023/03/12 06:48:11;;;;;;;65.68;6.57;;;;;;;;;;5014052;28;20472;-69
2023/03/12 06:50:37;;;;;;;79.75;8.60;;;;;;;;;;5013862;28;20474;-69
2023/03/12 06:53:03;;;;;;;69.50;8.18;;;;;;;;;;5013017;28;20057;-69
2023/03/12 06:55:29;;;;;;;44.95;7.32;;;;;;;;;;5013864;28;20053;-69
2023/03/12 06:57:55;;;;;;;56.50;6.78;;;;;;;;;;5014029;28;20018;-69
2023/03/12 07:00:21;;;;;;;56.92;6.47;;;;;;;;;;5014905;28;20121;-79
2023/03/12 07:02:48;;;;;;;58.88;7.20;;;;;;;;;;5014497;28;20070;-80
2023/03/12 07:05:14;;;;;;;58.42;7.75;;;;;;;;;;5013324;28;20116;-81
2023/03/12 07:07:40;;;;;;;66.47;7.97;;;;;;;;;;5014342;28;20053;-80
2023/03/12 07:10:06;;;;;;;48.58;8.38;;;;;;;;;;5013872;28;20030;-82
2023/03/12 07:12:33;;;;;;;49.20;9.13;;;;;;;;;;5017308;28;20117;-81
2023/03/12 07:14:59;;;;;;;46.20;5.45;;;;;;;;;;5017759;28;20022;-81
2023/03/12 07:17:26;;;;;;;56.55;7.38;;;;;;;;;;5014353;28;20065;-81
2023/03/12 07:19:52;;;;;;;39.85;7.00;;;;;;;;;;5013980;28;20029;-79
2023/03/12 07:22:18;;;;;;;67.95;9.75;;;;;;;;;;5013846;28;20050;-81
2023/03/12 07:24:44;;;;;;;51.55;7.63;;;;;;;;;;5013050;28;20470;-78
2023/03/12 07:27:10;;;;;;;48.58;5.82;;;;;;;;;;5013714;28;20042;-79
2023/03/12 07:29:36;;;;;;;71.47;8.38;;;;;;;;;;5011897;28;20032;-80
2023/03/12 07:32:02;;;;;;;46.78;6.50;;;;;;;;;;5013926;28;20029;-81
2023/03/12 07:34:29;;;;;;;54.17;6.35;;;;;;;;;;5013619;28;20239;-76
2023/03/12 07:36:55;;;;;;;58.67;8.32;;;;;;;;;;5013380;28;20172;-79
2023/03/12 07:39:21;;;;;;;52.15;6.72;;;;;;;;;;5012979;28;20018;-80
2023/03/12 07:41:47;;;;;;;61.45;7.15;;;;;;;;;;5010409;28;20026;-80
2023/03/12 07:44:13;;;;;;;60.47;7.72;;;;;;;;;;5014584;28;20034;-78
2023/03/12 07:46:39;;;;;;;77.75;6.88;;;;;;;;;;5020181;28;20034;-81
2023/03/12 07:49:06;;;;;;;69.63;8.02;;;;;;;;;;5012812;28;20025;-79
2023/03/12 07:51:32;;;;;;;60.25;8.80;;;;;;;;;;5012798;28;20109;-79
2023/03/12 07:53:58;;;;;;;71.55;7.90;;;;;;;;;;5012638;28;20029;-79
2023/03/12 07:56:25;;;;;;;58.30;8.63;;;;;;;;;;5013213;28;20096;-82
2023/03/12 07:58:51;;;;;;;47.92;8.48;;;;;;;;;;5013023;28;20037;-80
2023/03/12 08:01:17;;;;;;;47.17;6.70;;;;;;;;;;5013413;28;20021;-82
2023/03/12 08:03:44;;;;;;;52.50;6.60;;;;;;;;;;5012761;28;20471;-78
2023/03/12 08:06:10;;;;;;;52.13;7.07;;;;;;;;;;5012073;28;20162;-80
2023/03/12 08:08:40;;;;;;;58.20;7.15;;;;;;;;;;5011989;28;20450;-76
2023/03/12 08:11:06;;;;;;;76.88;8.23;;;;;;;;;;5021711;28;20029;-80
2023/03/12 08:13:32;;;;;;;61.05;8.32;;;;;;;;;;5033297;28;20021;-81
2023/03/12 08:15:58;;;;;;;75.97;9.80;;;;;;;;;;5016771;28;20034;-78
2023/03/12 08:18:25;;;;;;;65.40;7.15;;;;;;;;;;5011577;28;20026;-79
2023/03/12 08:20:51;;;;;;;72.30;9.30;;;;;;;;;;5011495;28;20034;-76
2023/03/12 08:23:18;;;;;;;42.50;6.50;;;;;;;;;;5012145;28;20030;-78
2023/03/12 08:25:46;;;;;;;73.82;9.20;;;;;;;;;;5009616;28;20026;-79
2023/03/12 08:28:12;;;;;;;82.82;8.95;;;;;;;;;;5012026;28;20029;-78
2023/03/12 08:30:38;;;;;;;61.17;7.03;;;;;;;;;;5012212;28;20022;-78
2023/03/12 08:33:04;;;;;;;73.15;11.57;;;;;;;;;;5012073;28;20360;-78
2023/03/12 08:35:30;;;;;;;65.85;8.13;;;;;;;;;;5010047;28;20033;-76
2023/03/12 08:37:56;;;;;;;64.38;7.10;;;;;;;;;;5011681;28;20014;-76
2023/03/12 08:40:26;;;;;;;59.33;8.48;;;;;;;;;;5011123;28;20057;-79
2023/03/12 08:42:52;;;;;;;75.35;8.13;;;;;;;;;;5010974;28;20033;-77
2023/03/12 08:45:18;;;;;;;82.53;9.02;;;;;;;;;;5009684;28;20525;-76
2023/03/12 08:47:44;;;;;;;67.55;8.48;;;;;;;;;;5010984;28;20406;-79
2023/03/12 08:50:11;;;;;;;59.55;7.13;;;;;;;;;;5010419;28;20437;-78
2023/03/12 08:52:37;;;;;;;60.65;7.28;;;;;;;;;;5009442;28;20040;-78
2023/03/12 08:55:04;;;;;;;58.47;8.10;;;;;;;;;;5010020;28;20348;-77
2023/03/12 08:57:31;;;;;;;53.72;7.30;;;;;;;;;;5011353;28;20030;-75
2023/03/12 08:59:57;;;;;;;68.60;9.60;;;;;;;;;;5008435;28;20026;-77
2023/03/12 09:02:23;;;;;;;66.13;7.38;;;;;;;;;;5009872;28;20429;-75
2023/03/12 09:04:50;;;;;;;81.40;8.63;;;;;;;;;;5011682;28;20025;-77
2023/03/12 09:07:21;;;;;;;85.43;9.27;;;;;;;;;;5011635;28;20033;-77
2023/03/12 09:09:47;;;;;;;48.33;7.38;;;;;;;;;;5011352;28;20025;-76
2023/03/12 09:12:13;;;;;;;63.13;6.70;;;;;;;;;;5011291;28;20026;-76
2023/03/12 09:14:39;;;;;;;72.70;8.80;;;;;;;;;;5011492;28;20025;-77
2023/03/12 09:17:05;;;;;;;54.88;8.50;;;;;;;;;;5000448;28;20030;-78
2023/03/12 09:19:32;;;;;;;37.67;6.20;;;;;;;;;;4995491;28;20076;-76
2023/03/12 09:21:58;;;;;;;55.08;6.88;;;;;;;;;;5031156;28;20049;-78
2023/03/12 09:24:24;;;;;;;55.10;7.15;;;;;;;;;;5031432;28;20030;-77
2023/03/12 09:26:50;;;;;;;55.03;7.22;;;;;;;;;;5020730;28;20498;-78
2023/03/12 09:29:16;;;;;;;68.43;7.90;;;;;;;;;;5011341;28;20048;-76
2023/03/12 09:31:42;;;;;;;44.28;6.53;;;;;;;;;;5009946;28;20052;-76
2023/03/12 09:34:08;;;;;;;67.55;7.25;;;;;;;;;;5011868;28;20018;-75
2023/03/12 09:36:34;;;;;;;71.07;7.38;;;;;;;;;;5014118;28;20065;-75
2023/03/12 09:39:01;;;;;;;61.20;6.88;;;;;;;;;;5015224;28;20474;-75
2023/03/12 09:41:29;;;;;;;81.60;10.50;;;;;;;;;;5015018;28;20029;-76
2023/03/12 09:44:01;;;;;;;59.63;7.05;;;;;;;;;;5015245;28;20030;-76
2023/03/12 09:46:34;;;;;;;49.92;7.00;;;;;;;;;;5013734;28;20034;-76
2023/03/12 09:49:04;;;;;;;63.22;8.80;;;;;;;;;;5015093;28;20084;-77
2023/03/12 09:51:33;;;;;;;60.28;9.07;;;;;;;;;;5012641;28;20042;-74
2023/03/12 09:54:02;;;;;;;60.40;8.45;;;;;;;;;;5014921;28;20395;-74
2023/03/12 09:56:28;;;;;;;61.97;7.28;;;;;;;;;;5014695;28;20033;-73
2023/03/12 09:58:55;;;;;;;47.72;7.20;;;;;;;;;;5014996;28;20022;-73
2023/03/12 10:01:32;;;;;;;65.57;7.32;;;;;;;;;;5014899;28;20022;-74
2023/03/12 10:04:17;;;;;;;83.40;8.63;;;;;;;;;;5014622;28;20104;-73
2023/03/12 10:07:04;;;;;;;61.08;8.02;;;;;;;;;;5013689;28;20034;-74
2023/03/12 10:09:39;;;;;;;66.00;7.78;;;;;;;;;;5003481;28;20045;-74
2023/03/12 10:12:11;;;;;;;50.03;7.57;;;;;;;;;;5013113;28;20029;-72
2023/03/12 10:14:56;;;;;;;70.60;10.15;;;;;;;;;;5014569;28;20029;-75
2023/03/12 10:17:37;;;;;;;61.78;8.25;;;;;;;;;;5014412;28;20022;-74
2023/03/12 10:20:19;;;;;;;71.50;8.57;;;;;;;;;;5014144;28;20026;-75
2023/03/12 10:23:04;;;;;;;80.20;7.93;;;;;;;;;;5012695;28;20049;-74
2023/03/12 10:25:34;;;;;;;61.25;6.65;;;;;;;;;;5014450;28;20049;-73
2023/03/12 10:28:10;;;;;;;57.00;10.30;;;;;;;;;;5014395;28;20045;-73
2023/03/12 10:30:36;;;;;;;55.03;7.40;;;;;;;;;;5014199;28;20108;-73
2023/03/12 10:33:03;;;;;;;84.82;7.30;;;;;;;;;;5014394;28;20026;-73
2023/03/12 10:35:30;;;;;;;71.93;8.50;;;;;;;;;;5014321;28;20116;-74
2023/03/12 10:37:56;;;;;;;58.28;7.80;;;;;;;;;;5013966;28;20386;-72
2023/03/12 10:40:27;;;;;;;72.53;9.13;;;;;;;;;;5011151;28;20470;-74
2023/03/12 10:42:53;;;;;;;65.32;7.78;;;;;;;;;;5014216;28;20037;-72
2023/03/12 10:45:19;;;;;;;58.72;8.02;;;;;;;;;;5012551;28;20026;-72
2023/03/12 10:47:48;;;;;;;75.43;8.57;;;;;;;;;;5012714;28;20117;-72
2023/03/12 10:50:22;;;;;;;66.43;7.10;;;;;;;;;;5013822;28;20018;-72
2023/03/12 10:52:49;;;;;;;56.42;8.40;;;;;;;;;;5012553;28;20030;-75
2023/03/12 10:55:19;;;;;;;48.92;7.90;;;;;;;;;;5013886;28;20029;-75
2023/03/12 10:57:45;;;;;;;57.33;9.35;;;;;;;;;;5012608;28;20046;-72
2023/03/12 11:00:38;;;;;;;58.10;7.28;;;;;;;;;;5013406;28;20030;-70
2023/03/12 11:03:04;;;;;;;;;;;;;;;;;;5019425;28;20061;-73
2023/03/12 11:05:31;;;;;;;50.13;7.07;;;;;;;;;;5033405;28;19909;-74
2023/03/12 11:07:59;;;;;;;55.10;7.82;;;;;;;;;;5033391;28;20104;-73
2023/03/12 11:10:27;;;;;;;60.83;6.57;;;;;;;;;;5033542;28;20117;-73
2023/03/12 11:12:55;;;;;;;50.75;5.70;;;;;;;;;;5033306;28;20036;-73
2023/03/12 11:15:27;;;;;;;57.92;8.18;;;;;;;;;;5019708;28;20025;-73
2023/03/12 11:18:13;;;;;;;52.33;5.68;;;;;;;;;;5013493;28;20045;-73
2023/03/12 11:20:40;;;;;;;49.90;6.63;;;;;;;;;;5013180;28;20026;-74
2023/03/12 11:23:16;;;;;;;46.35;6.60;;;;;;;;;;5014566;28;20276;-74
2023/03/12 11:25:42;;;;;;;44.10;7.40;;;;;;;;;;5011581;28;20018;-74
2023/03/12 11:28:12;;;;;;;46.85;5.72;;;;;;;;;;5011948;28;20441;-73
2023/03/12 11:30:39;;;;;;;62.38;7.85;;;;;;;;;;5012751;28;20068;-73
2023/03/12 11:33:06;;;;;;;53.45;6.93;;;;;;;;;;5005915;28;20479;-73
2023/03/12 11:35:50;;;;;;;45.17;6.13;;;;;;;;;;5033001;28;20619;-73
2023/03/12 11:38:20;;;;;;;37.17;6.78;;;;;;;;;;5032934;28;20075;-72
2023/03/12 11:40:46;;;;;;;44.20;5.72;;;;;;;;;;5031059;28;20033;-72
2023/03/12 11:43:34;;;;;;;42.55;5.95;;;;;;;;;;5030948;28;20131;-73
2023/03/12 11:46:09;;;;;;;45.28;6.57;;;;;;;;;;5021352;28;20021;-73
2023/03/12 11:48:49;;;;;;;54.30;6.15;;;;;;;;;;4998179;28;20076;-72
2023/03/12 11:51:34;;;;;;;42.80;4.53;;;;;;;;;;4991157;28;20037;-73
2023/03/12 11:54:03;;;;;;;47.85;6.28;;;;;;;;;;4991787;28;20025;-73
2023/03/12 11:56:29;;;;;;;37.17;5.20;;;;;;;;;;4992341;28;20018;-73
2023/03/12 11:59:16;;;;;;;35.22;5.32;;;;;;;;;;4993095;28;20033;-71
2023/03/12 12:01:48;;;;;;;30.38;6.00;;;;;;;;;;4988999;28;20034;-72
2023/03/12 12:04:40;;;;;;;18.33;3.10;;;;;;;;;;4993052;28;20023;-72
2023/03/12 12:07:07;;;;;;;16.45;3.45;;;;;;;;;;5001967;28;20503;-73
2023/03/12 12:09:51;;;;;;;17.88;2.90;;;;;;;;;;5012326;28;20022;-73
2023/03/12 12:12:26;;;;;;;28.73;4.07;;;;;;;;;;5012396;28;20026;-73
2023/03/12 12:14:55;;;;;;;15.13;2.28;;;;;;;;;;5012387;28;20041;-73
2023/03/12 12:17:45;;;;;;;9.05;1.80;;;;;;;;;;5008508;28;20374;-73
2023/03/12 12:20:25;;;;;;;8.40;2.30;;;;;;;;;;5008832;28;20093;-73
2023/03/12 12:22:51;;;;;;;16.98;2.45;;;;;;;;;;5012138;28;20049;-73
2023/03/12 12:25:36;;;;;;;10.02;1.63;;;;;;;;;;5011424;28;20030;-73
2023/03/12 12:28:20;;;;;;;19.90;3.05;;;;;;;;;;5010805;28;20041;-74
2023/03/12 12:31:05;;;;;;;21.77;3.08;;;;;;;;;;5011268;28;20029;-72
2023/03/12 12:33:40;;;;;;;29.05;4.78;;;;;;;;;;5010545;28;20037;-72
2023/03/12 12:36:08;;;;;;;32.67;4.95;;;;;;;;;;5011068;28;20026;-72
2023/03/12 12:38:49;;;;;;;45.70;7.82;;;;;;;;;;5011709;28;20026;-76
2023/03/12 12:41:24;;;;;;;36.38;5.13;;;;;;;;;;5010403;28;20029;-69
2023/03/12 12:43:55;;;;;;;45.08;6.70;;;;;;;;;;5011809;28;20018;-66
2023/03/12 12:46:24;;;;;;;39.45;4.57;;;;;;;;;;4994972;28;20121;-67
2023/03/12 12:48:54;;;;;;;37.05;5.32;;;;;;;;;;4992298;28;20022;-67
2023/03/12 12:51:22;;;;;;;33.25;5.35;;;;;;;;;;4999290;28;20033;-65
2023/03/12 12:53:48;;;;;;;46.45;5.80;;;;;;;;;;5011740;28;20446;-67
2023/03/12 12:56:17;;;;;;;41.35;6.85;;;;;;;;;;5011631;28;20490;-67
2023/03/12 12:58:49;;;;;;;37.70;4.75;;;;;;;;;;5012205;28;20030;-66
2023/03/12 13:01:17;;;;;;;37.22;4.40;;;;;;;;;;5029180;28;20091;-66
2023/03/12 13:03:44;;;;;;;28.73;4.22;;;;;;;;;;4992134;28;20037;-67
2023/03/12 13:06:10;;;;;;;33.60;4.03;;;;;;;;;;5002358;28;20632;-67
2023/03/12 13:08:56;;;;;;;36.50;3.97;;;;;;;;;;5000976;28;20065;-70
2023/03/12 13:11:24;;;;;;;20.30;3.92;;;;;;;;;;5011424;28;20436;-72
2023/03/12 13:14:10;;;;;;;32.17;3.97;;;;;;;;;;5011134;28;20053;-73
2023/03/12 13:16:38;;;;;;;29.67;3.50;;;;;;;;;;5003106;28;20026;-71
2023/03/12 13:19:13;;;;;;;23.98;4.28;;;;;;;;;;5002980;28;20038;-74
2023/03/12 13:21:59;;;;;;;41.08;4.13;;;;;;;;;;5010633;28;20046;-70
2023/03/12 13:24:29;;;;;;;36.88;3.95;;;;;;;;;;5009127;28;20371;-69
2023/03/12 13:27:02;;;;;;;34.08;5.03;;;;;;;;;;5029984;28;20038;-70
2023/03/12 13:29:28;;;;;;;24.42;3.83;;;;;;;;;;5008268;28;20026;-73
2023/03/12 13:31:54;;;;;;;30.65;3.85;;;;;;;;;;5002059;28;20038;-76
2023/03/12 13:34:20;;;;;;;33.28;5.30;;;;;;;;;;4999535;28;20034;-74
2023/03/12 13:36:47;;;;;;;36.72;4.40;;;;;;;;;;5010247;28;20077;-77
2023/03/12 13:39:20;;;;;;;30.08;4.85;;;;;;;;;;5009997;28;20105;-77
2023/03/12 13:41:51;;;;;;;42.40;4.93;;;;;;;;;;5010109;28;20170;-78
2023/03/12 13:44:26;;;;;;;30.85;4.75;;;;;;;;;;5011057;28;20022;-76
2023/03/12 13:47:10;;;;;;;44.78;5.82;;;;;;;;;;5002247;28;20034;-74
2023/03/12 13:49:57;;;;;;;54.95;5.50;;;;;;;;;;5009821;28;20033;-74
2023/03/12 13:52:31;;;;;;;48.80;7.95;;;;;;;;;;5002040;28;20084;-75
2023/03/12 13:55:13;;;;;;;43.35;5.00;;;;;;;;;;5001890;28;20391;-73
2023/03/12 13:57:39;;;;;;;31.88;4.82;;;;;;;;;;5008209;28;20033;-75
2023/03/12 14:00:11;;;;;;;49.53;8.75;;;;;;;;;;5010518;28;20032;-74
2023/03/12 14:02:37;;;;;;;;;;;;;;;;;;5010273;28;20037;-74
2023/03/12 14:05:05;;;;;;;43.47;5.00;;;;;;;;;;5009478;28;19909;-73
2023/03/12 14:07:31;;;;;;;52.88;7.88;;;;;;;;;;5019164;28;20052;-73
2023/03/12 14:10:00;;;;;;;41.30;6.18;;;;;;;;;;5023315;28;20075;-73
2023/03/12 14:12:26;;;;;;;41.28;6.40;;;;;;;;;;5011097;28;20026;-73
2023/03/12 14:15:10;;;;;;;44.47;5.05;;;;;;;;;;5010972;28;20019;-72
2023/03/12 14:17:38;;;;;;;58.55;6.35;;;;;;;;;;5010009;28;20482;-73
2023/03/12 14:20:08;;;;;;;55.60;6.07;;;;;;;;;;5023576;28;20029;-71
2023/03/12 14:22:35;;;;;;;51.90;7.38;;;;;;;;;;5026888;28;20531;-68
2023/03/12 14:25:04;;;;;;;55.20;7.40;;;;;;;;;;5014515;28;20091;-71
2023/03/12 14:27:32;;;;;;;47.22;6.68;;;;;;;;;;5004054;28;20030;-70
2023/03/12 14:30:30;;;;;;;55.17;7.72;;;;;;;;;;5043972;28;20018;-71
2023/03/12 14:32:58;;;;;;;49.17;6.32;;;;;;;;;;5012450;28;20037;-71
2023/03/12 14:35:32;;;;;;;54.60;6.35;;;;;;;;;;5012182;28;20101;-70
2023/03/12 14:38:07;;;;;;;38.75;6.40;;;;;;;;;;5013930;28;20508;-69